sensor_id;sensor_type;location;lat;lon;timestamp;P1;durP1;ratioP1;P2;durP2;ratioP2
26696;SDS011;14312;52.614;13.496;2023-04-06T00:00:23;2.83;;;2.53;;
26696;SDS011;14312;52.614;13.496;2023-04-06T00:03:09;3.53;;;2.75;;
26696;SDS011;14312;52.614;13.496;2023-04-06T00:05:55;3.72;;;2.75;;
26696;SDS011;14312;52.614;13.496;2023-04-06T00:08:41;3.17;;;2.85;;
26696;SDS011;14312;52.614;13.496;2023-04-06T00:11:27;4.35;;;3.50;;
26696;SDS011;14312;52.614;13.496;2023-04-06T00:14:13;3.40;;;3.10;;
26696;SDS011;14312;52.614;13.496;2023-04-06T00:17:00;3.42;;;3.00;;
26696;SDS011;14312;52.614;13.496;2023-04-06T00:19:46;4.13;;;3.40;;
26696;SDS011;14312;52.614;13.496;2023-04-06T00:22:32;4.63;;;3.97;;
26696;SDS011;14312;52.614;13.496;2023-04-06T00:25:18;5.47;;;4.00;;
26696;SDS011;14312;52.614;13.496;2023-04-06T00:28:04;5.38;;;4.82;;
26696;SDS011;14312;52.614;13.496;2023-04-06T00:30:50;5.10;;;4.35;;
26696;SDS011;14312;52.614;13.496;2023-04-06T00:33:38;4.38;;;3.97;;
26696;SDS011;14312;52.614;13.496;2023-04-06T00:36:23;4.90;;;4.40;;
26696;SDS011;14312;52.614;13.496;2023-04-06T00:39:10;4.68;;;3.83;;
26696;SDS011;14312;52.614;13.496;2023-04-06T00:41:56;3.80;;;3.45;;
26696;SDS011;14312;52.614;13.496;2023-04-06T00:44:43;4.00;;;3.55;;
26696;SDS011;14312;52.614;13.496;2023-04-06T00:47:29;3.55;;;2.90;;
26696;SDS011;14312;52.614;13.496;2023-04-06T00:50:16;3.03;;;2.72;;
26696;SDS011;14312;52.614;13.496;2023-04-06T00:53:02;3.38;;;2.92;;
26696;SDS011;14312;52.614;13.496;2023-04-06T00:55:48;3.22;;;2.80;;
26696;SDS011;14312;52.614;13.496;2023-04-06T00:58:34;4.40;;;3.10;;
26696;SDS011;14312;52.614;13.496;2023-04-06T01:01:23;3.55;;;3.00;;
26696;SDS011;14312;52.614;13.496;2023-04-06T01:04:10;2.92;;;2.72;;
26696;SDS011;14312;52.614;13.496;2023-04-06T01:06:56;3.53;;;2.97;;
26696;SDS011;14312;52.614;13.496;2023-04-06T01:09:42;3.47;;;2.95;;
26696;SDS011;14312;52.614;13.496;2023-04-06T01:12:28;2.92;;;2.63;;
26696;SDS011;14312;52.614;13.496;2023-04-06T01:15:14;3.50;;;2.70;;
26696;SDS011;14312;52.614;13.496;2023-04-06T01:18:01;3.60;;;2.50;;
26696;SDS011;14312;52.614;13.496;2023-04-06T01:20:47;3.38;;;2.70;;
26696;SDS011;14312;52.614;13.496;2023-04-06T01:23:34;3.40;;;3.00;;
26696;SDS011;14312;52.614;13.496;2023-04-06T01:26:20;3.83;;;3.05;;
26696;SDS011;14312;52.614;13.496;2023-04-06T01:29:06;4.55;;;3.10;;
26696;SDS011;14312;52.614;13.496;2023-04-06T01:31:52;3.50;;;2.63;;
26696;SDS011;14312;52.614;13.496;2023-04-06T01:34:38;3.22;;;2.83;;
26696;SDS011;14312;52.614;13.496;2023-04-06T01:37:24;3.78;;;2.90;;
26696;SDS011;14312;52.614;13.496;2023-04-06T01:40:11;3.15;;;2.70;;
26696;SDS011;14312;52.614;13.496;2023-04-06T01:42:57;3.20;;;2.90;;
26696;SDS011;14312;52.614;13.496;2023-04-06T01:45:43;4.13;;;2.90;;
26696;SDS011;14312;52.614;13.496;2023-04-06T01:48:29;3.45;;;2.65;;
26696;SDS011;14312;52.614;13.496;2023-04-06T01:51:15;4.03;;;2.75;;
26696;SDS011;14312;52.614;13.496;2023-04-06T01:54:01;3.22;;;2.85;;
26696;SDS011;14312;52.614;13.496;2023-04-06T01:56:48;2.55;;;2.35;;
26696;SDS011;14312;52.614;13.496;2023-04-06T01:59:36;3.20;;;2.85;;
26696;SDS011;14312;52.614;13.496;2023-04-06T02:02:22;2.83;;;2.45;;
26696;SDS011;14312;52.614;13.496;2023-04-06T02:05:08;3.53;;;2.63;;
26696;SDS011;14312;52.614;13.496;2023-04-06T02:07:54;2.83;;;2.45;;
26696;SDS011;14312;52.614;13.496;2023-04-06T02:10:40;3.83;;;2.80;;
26696;SDS011;14312;52.614;13.496;2023-04-06T02:13:26;4.47;;;2.22;;
26696;SDS011;14312;52.614;13.496;2023-04-06T02:16:12;3.30;;;2.50;;
26696;SDS011;14312;52.614;13.496;2023-04-06T02:18:58;2.40;;;2.20;;
26696;SDS011;14312;52.614;13.496;2023-04-06T02:21:44;2.92;;;2.40;;
26696;SDS011;14312;52.614;13.496;2023-04-06T02:24:30;3.15;;;2.53;;
26696;SDS011;14312;52.614;13.496;2023-04-06T02:27:16;3.72;;;2.42;;
26696;SDS011;14312;52.614;13.496;2023-04-06T02:30:03;2.47;;;2.28;;
26696;SDS011;14312;52.614;13.496;2023-04-06T02:32:49;2.67;;;2.33;;
26696;SDS011;14312;52.614;13.496;2023-04-06T02:35:35;2.35;;;1.92;;
26696;SDS011;14312;52.614;13.496;2023-04-06T02:38:21;2.58;;;2.38;;
26696;SDS011;14312;52.614;13.496;2023-04-06T02:41:07;3.70;;;2.28;;
26696;SDS011;14312;52.614;13.496;2023-04-06T02:43:53;2.88;;;2.45;;
26696;SDS011;14312;52.614;13.496;2023-04-06T02:46:39;3.25;;;2.45;;
26696;SDS011;14312;52.614;13.496;2023-04-06T02:49:25;2.83;;;2.55;;
26696;SDS011;14312;52.614;13.496;2023-04-06T02:52:11;2.53;;;2.33;;
26696;SDS011;14312;52.614;13.496;2023-04-06T02:54:57;2.80;;;2.50;;
26696;SDS011;14312;52.614;13.496;2023-04-06T02:57:43;2.92;;;2.53;;
26696;SDS011;14312;52.614;13.496;2023-04-06T03:00:29;4.60;;;2.63;;
26696;SDS011;14312;52.614;13.496;2023-04-06T03:03:15;2.72;;;2.53;;
26696;SDS011;14312;52.614;13.496;2023-04-06T03:06:01;2.95;;;2.45;;
26696;SDS011;14312;52.614;13.496;2023-04-06T03:08:48;3.28;;;2.33;;
26696;SDS011;14312;52.614;13.496;2023-04-06T03:11:34;2.95;;;2.30;;
26696;SDS011;14312;52.614;13.496;2023-04-06T03:14:20;3.37;;;2.50;;
26696;SDS011;14312;52.614;13.496;2023-04-06T03:17:07;3.27;;;2.70;;
26696;SDS011;14312;52.614;13.496;2023-04-06T03:19:53;4.13;;;2.60;;
26696;SDS011;14312;52.614;13.496;2023-04-06T03:22:39;3.20;;;2.70;;
26696;SDS011;14312;52.614;13.496;2023-04-06T03:25:25;3.87;;;2.90;;
26696;SDS011;14312;52.614;13.496;2023-04-06T03:28:11;2.63;;;2.42;;
26696;SDS011;14312;52.614;13.496;2023-04-06T03:30:56;3.60;;;2.73;;
26696;SDS011;14312;52.614;13.496;2023-04-06T03:33:42;3.50;;;2.80;;
26696;SDS011;14312;52.614;13.496;2023-04-06T03:36:28;3.83;;;2.80;;
26696;SDS011;14312;52.614;13.496;2023-04-06T03:39:16;3.23;;;2.60;;
26696;SDS011;14312;52.614;13.496;2023-04-06T03:42:02;3.60;;;2.90;;
26696;SDS011;14312;52.614;13.496;2023-04-06T03:44:48;4.03;;;3.07;;
26696;SDS011;14312;52.614;13.496;2023-04-06T03:47:34;2.90;;;2.60;;
26696;SDS011;14312;52.614;13.496;2023-04-06T03:50:20;4.13;;;2.93;;
26696;SDS011;14312;52.614;13.496;2023-04-06T03:53:06;3.60;;;2.78;;
26696;SDS011;14312;52.614;13.496;2023-04-06T03:55:52;3.53;;;2.70;;
26696;SDS011;14312;52.614;13.496;2023-04-06T03:58:38;3.43;;;2.80;;
26696;SDS011;14312;52.614;13.496;2023-04-06T04:01:24;3.77;;;2.83;;
26696;SDS011;14312;52.614;13.496;2023-04-06T04:04:10;3.90;;;2.83;;
26696;SDS011;14312;52.614;13.496;2023-04-06T04:06:56;2.97;;;2.67;;
26696;SDS011;14312;52.614;13.496;2023-04-06T04:09:42;3.43;;;2.70;;
26696;SDS011;14312;52.614;13.496;2023-04-06T04:12:28;3.65;;;3.03;;
26696;SDS011;14312;52.614;13.496;2023-04-06T04:15:14;4.07;;;3.07;;
26696;SDS011;14312;52.614;13.496;2023-04-06T04:18:00;4.67;;;2.73;;
26696;SDS011;14312;52.614;13.496;2023-04-06T04:20:46;4.95;;;2.83;;
26696;SDS011;14312;52.614;13.496;2023-04-06T04:23:32;3.57;;;2.80;;
26696;SDS011;14312;52.614;13.496;2023-04-06T04:26:18;3.17;;;2.87;;
26696;SDS011;14312;52.614;13.496;2023-04-06T04:29:05;3.57;;;2.47;;
26696;SDS011;14312;52.614;13.496;2023-04-06T04:31:52;3.07;;;2.40;;
26696;SDS011;14312;52.614;13.496;2023-04-06T04:34:38;2.80;;;2.53;;
26696;SDS011;14312;52.614;13.496;2023-04-06T04:37:26;4.77;;;2.80;;
26696;SDS011;14312;52.614;13.496;2023-04-06T04:40:12;4.97;;;2.70;;
26696;SDS011;14312;52.614;13.496;2023-04-06T04:42:58;3.40;;;2.57;;
26696;SDS011;14312;52.614;13.496;2023-04-06T04:45:44;3.13;;;2.67;;
26696;SDS011;14312;52.614;13.496;2023-04-06T04:48:30;3.03;;;2.73;;
26696;SDS011;14312;52.614;13.496;2023-04-06T04:51:16;2.93;;;2.63;;
26696;SDS011;14312;52.614;13.496;2023-04-06T04:54:02;6.07;;;3.07;;
26696;SDS011;14312;52.614;13.496;2023-04-06T04:56:48;3.85;;;3.03;;
26696;SDS011;14312;52.614;13.496;2023-04-06T04:59:35;3.30;;;2.57;;
26696;SDS011;14312;52.614;13.496;2023-04-06T05:02:21;3.57;;;3.10;;
26696;SDS011;14312;52.614;13.496;2023-04-06T05:05:07;4.00;;;2.80;;
26696;SDS011;14312;52.614;13.496;2023-04-06T05:07:54;3.23;;;2.83;;
26696;SDS011;14312;52.614;13.496;2023-04-06T05:10:40;3.73;;;3.00;;
26696;SDS011;14312;52.614;13.496;2023-04-06T05:13:26;3.70;;;3.00;;
26696;SDS011;14312;52.614;13.496;2023-04-06T05:16:12;2.73;;;2.50;;
26696;SDS011;14312;52.614;13.496;2023-04-06T05:18:58;2.72;;;2.50;;
26696;SDS011;14312;52.614;13.496;2023-04-06T05:21:44;3.17;;;2.87;;
26696;SDS011;14312;52.614;13.496;2023-04-06T05:24:30;3.43;;;3.00;;
26696;SDS011;14312;52.614;13.496;2023-04-06T05:27:16;3.13;;;2.80;;
26696;SDS011;14312;52.614;13.496;2023-04-06T05:30:02;3.60;;;2.97;;
26696;SDS011;14312;52.614;13.496;2023-04-06T05:32:49;3.33;;;2.77;;
26696;SDS011;14312;52.614;13.496;2023-04-06T05:35:35;4.78;;;3.13;;
26696;SDS011;14312;52.614;13.496;2023-04-06T05:38:21;2.90;;;2.60;;
26696;SDS011;14312;52.614;13.496;2023-04-06T05:41:08;3.13;;;2.78;;
26696;SDS011;14312;52.614;13.496;2023-04-06T05:43:54;3.50;;;2.80;;
26696;SDS011;14312;52.614;13.496;2023-04-06T05:46:40;3.80;;;3.00;;
26696;SDS011;14312;52.614;13.496;2023-04-06T05:49:26;4.33;;;3.27;;
26696;SDS011;14312;52.614;13.496;2023-04-06T05:52:12;4.35;;;3.00;;
26696;SDS011;14312;52.614;13.496;2023-04-06T05:54:58;4.43;;;3.53;;
26696;SDS011;14312;52.614;13.496;2023-04-06T05:57:44;3.73;;;2.93;;
26696;SDS011;14312;52.614;13.496;2023-04-06T06:00:30;3.95;;;3.28;;
26696;SDS011;14312;52.614;13.496;2023-04-06T06:03:16;3.45;;;2.83;;
26696;SDS011;14312;52.614;13.496;2023-04-06T06:06:02;3.75;;;3.20;;
26696;SDS011;14312;52.614;13.496;2023-04-06T06:08:49;5.68;;;3.35;;
26696;SDS011;14312;52.614;13.496;2023-04-06T06:11:35;3.70;;;3.30;;
26696;SDS011;14312;52.614;13.496;2023-04-06T06:14:22;4.33;;;3.90;;
26696;SDS011;14312;52.614;13.496;2023-04-06T06:17:09;8.25;;;3.55;;
26696;SDS011;14312;52.614;13.496;2023-04-06T06:19:55;6.13;;;4.10;;
26696;SDS011;14312;52.614;13.496;2023-04-06T06:22:41;5.32;;;3.50;;
26696;SDS011;14312;52.614;13.496;2023-04-06T06:25:27;4.90;;;4.00;;
26696;SDS011;14312;52.614;13.496;2023-04-06T06:28:16;4.83;;;4.23;;
26696;SDS011;14312;52.614;13.496;2023-04-06T06:31:02;6.70;;;4.78;;
26696;SDS011;14312;52.614;13.496;2023-04-06T06:33:48;5.85;;;4.45;;
26696;SDS011;14312;52.614;13.496;2023-04-06T06:36:40;4.45;;;4.05;;
26696;SDS011;14312;52.614;13.496;2023-04-06T06:39:29;5.05;;;3.78;;
26696;SDS011;14312;52.614;13.496;2023-04-06T06:42:18;5.05;;;3.80;;
26696;SDS011;14312;52.614;13.496;2023-04-06T06:45:04;4.68;;;4.15;;
26696;SDS011;14312;52.614;13.496;2023-04-06T06:47:52;4.68;;;4.20;;
26696;SDS011;14312;52.614;13.496;2023-04-06T06:50:38;5.00;;;3.90;;
26696;SDS011;14312;52.614;13.496;2023-04-06T06:53:24;5.85;;;3.90;;
26696;SDS011;14312;52.614;13.496;2023-04-06T06:56:10;4.32;;;3.92;;
26696;SDS011;14312;52.614;13.496;2023-04-06T06:58:57;5.35;;;4.43;;
26696;SDS011;14312;52.614;13.496;2023-04-06T07:01:43;5.20;;;4.10;;
26696;SDS011;14312;52.614;13.496;2023-04-06T07:04:29;4.43;;;3.70;;
26696;SDS011;14312;52.614;13.496;2023-04-06T07:07:15;4.53;;;4.13;;
26696;SDS011;14312;52.614;13.496;2023-04-06T07:10:01;4.30;;;3.90;;
26696;SDS011;14312;52.614;13.496;2023-04-06T07:12:47;4.47;;;3.92;;
26696;SDS011;14312;52.614;13.496;2023-04-06T07:15:34;5.32;;;3.97;;
26696;SDS011;14312;52.614;13.496;2023-04-06T07:18:20;4.82;;;4.05;;
26696;SDS011;14312;52.614;13.496;2023-04-06T07:21:08;4.80;;;4.07;;
26696;SDS011;14312;52.614;13.496;2023-04-06T07:23:55;4.43;;;4.03;;
26696;SDS011;14312;52.614;13.496;2023-04-06T07:26:41;4.88;;;3.85;;
26696;SDS011;14312;52.614;13.496;2023-04-06T07:29:28;3.78;;;3.42;;
26696;SDS011;14312;52.614;13.496;2023-04-06T07:32:14;5.57;;;4.50;;
26696;SDS011;14312;52.614;13.496;2023-04-06T07:35:06;3.45;;;3.15;;
26696;SDS011;14312;52.614;13.496;2023-04-06T07:37:53;5.05;;;3.70;;
26696;SDS011;14312;52.614;13.496;2023-04-06T07:40:40;6.53;;;4.13;;
26696;SDS011;14312;52.614;13.496;2023-04-06T07:43:26;4.63;;;3.47;;
26696;SDS011;14312;52.614;13.496;2023-04-06T07:46:12;6.57;;;3.92;;
26696;SDS011;14312;52.614;13.496;2023-04-06T07:49:01;3.78;;;3.03;;
26696;SDS011;14312;52.614;13.496;2023-04-06T07:51:47;4.80;;;3.15;;
26696;SDS011;14312;52.614;13.496;2023-04-06T07:54:34;4.32;;;3.83;;
26696;SDS011;14312;52.614;13.496;2023-04-06T07:57:20;3.22;;;2.67;;
26696;SDS011;14312;52.614;13.496;2023-04-06T08:00:06;2.97;;;2.47;;
26696;SDS011;14312;52.614;13.496;2023-04-06T08:02:56;3.50;;;3.20;;
26696;SDS011;14312;52.614;13.496;2023-04-06T08:05:42;4.93;;;3.78;;
26696;SDS011;14312;52.614;13.496;2023-04-06T08:08:28;5.45;;;3.83;;
26696;SDS011;14312;52.614;13.496;2023-04-06T08:11:14;4.85;;;3.45;;
26696;SDS011;14312;52.614;13.496;2023-04-06T08:14:01;4.50;;;3.65;;
26696;SDS011;14312;52.614;13.496;2023-04-06T08:16:47;4.53;;;3.65;;
26696;SDS011;14312;52.614;13.496;2023-04-06T08:19:33;5.40;;;3.38;;
26696;SDS011;14312;52.614;13.496;2023-04-06T08:22:19;4.85;;;3.13;;
26696;SDS011;14312;52.614;13.496;2023-04-06T08:25:05;5.05;;;2.80;;
26696;SDS011;14312;52.614;13.496;2023-04-06T08:27:51;3.33;;;3.00;;
26696;SDS011;14312;52.614;13.496;2023-04-06T08:30:41;3.38;;;2.90;;
26696;SDS011;14312;52.614;13.496;2023-04-06T08:33:28;4.97;;;3.42;;
26696;SDS011;14312;52.614;13.496;2023-04-06T08:36:14;4.00;;;3.25;;
26696;SDS011;14312;52.614;13.496;2023-04-06T08:39:00;3.40;;;2.63;;
26696;SDS011;14312;52.614;13.496;2023-04-06T08:41:46;2.80;;;2.40;;
26696;SDS011;14312;52.614;13.496;2023-04-06T08:44:33;4.15;;;2.20;;
26696;SDS011;14312;52.614;13.496;2023-04-06T08:47:19;3.60;;;2.22;;
26696;SDS011;14312;52.614;13.496;2023-04-06T08:50:05;2.83;;;2.17;;
26696;SDS011;14312;52.614;13.496;2023-04-06T08:52:53;2.90;;;2.33;;
26696;SDS011;14312;52.614;13.496;2023-04-06T08:55:41;3.20;;;1.95;;
26696;SDS011;14312;52.614;13.496;2023-04-06T08:58:31;2.20;;;2.00;;
26696;SDS011;14312;52.614;13.496;2023-04-06T09:01:21;2.25;;;2.05;;
26696;SDS011;14312;52.614;13.496;2023-04-06T09:04:11;2.40;;;2.08;;
26696;SDS011;14312;52.614;13.496;2023-04-06T09:06:58;3.40;;;2.20;;
26696;SDS011;14312;52.614;13.496;2023-04-06T09:09:45;2.63;;;1.83;;
26696;SDS011;14312;52.614;13.496;2023-04-06T09:12:34;2.65;;;2.22;;
26696;SDS011;14312;52.614;13.496;2023-04-06T09:15:21;3.95;;;2.42;;
26696;SDS011;14312;52.614;13.496;2023-04-06T09:18:07;2.67;;;2.30;;
26696;SDS011;14312;52.614;13.496;2023-04-06T09:21:04;2.55;;;2.03;;
26696;SDS011;14312;52.614;13.496;2023-04-06T09:24:00;2.85;;;2.45;;
26696;SDS011;14312;52.614;13.496;2023-04-06T09:26:47;3.28;;;2.00;;
26696;SDS011;14312;52.614;13.496;2023-04-06T09:29:33;1.58;;;1.40;;
26696;SDS011;14312;52.614;13.496;2023-04-06T09:32:20;1.70;;;1.40;;
26696;SDS011;14312;52.614;13.496;2023-04-06T09:35:09;2.88;;;1.88;;
26696;SDS011;14312;52.614;13.496;2023-04-06T09:37:55;2.33;;;1.60;;
26696;SDS011;14312;52.614;13.496;2023-04-06T09:40:49;2.22;;;1.98;;
26696;SDS011;14312;52.614;13.496;2023-04-06T09:43:36;2.60;;;1.80;;
26696;SDS011;14312;52.614;13.496;2023-04-06T09:46:22;2.55;;;2.00;;
26696;SDS011;14312;52.614;13.496;2023-04-06T09:49:09;5.35;;;2.10;;
26696;SDS011;14312;52.614;13.496;2023-04-06T09:52:00;2.88;;;1.70;;
26696;SDS011;14312;52.614;13.496;2023-04-06T09:54:49;1.48;;;1.38;;
26696;SDS011;14312;52.614;13.496;2023-04-06T10:03:45;1.75;;;1.40;;
26696;SDS011;14312;52.614;13.496;2023-04-06T10:06:37;1.85;;;1.63;;
26696;SDS011;14312;52.614;13.496;2023-04-06T10:09:24;1.58;;;1.48;;
26696;SDS011;14312;52.614;13.496;2023-04-06T10:12:14;2.28;;;1.45;;
26696;SDS011;14312;52.614;13.496;2023-04-06T10:15:00;1.80;;;1.42;;
26696;SDS011;14312;52.614;13.496;2023-04-06T10:17:47;1.63;;;1.52;;
26696;SDS011;14312;52.614;13.496;2023-04-06T10:26:30;1.50;;;1.40;;
26696;SDS011;14312;52.614;13.496;2023-04-06T10:29:17;2.15;;;1.90;;
26696;SDS011;14312;52.614;13.496;2023-04-06T10:32:03;1.70;;;1.60;;
26696;SDS011;14312;52.614;13.496;2023-04-06T10:34:49;2.28;;;1.80;;
26696;SDS011;14312;52.614;13.496;2023-04-06T10:40:38;2.00;;;1.80;;
26696;SDS011;14312;52.614;13.496;2023-04-06T10:43:25;1.75;;;1.65;;
26696;SDS011;14312;52.614;13.496;2023-04-06T10:46:11;2.03;;;1.52;;
26696;SDS011;14312;52.614;13.496;2023-04-06T10:48:57;1.75;;;1.40;;
26696;SDS011;14312;52.614;13.496;2023-04-06T10:51:50;2.25;;;1.40;;
26696;SDS011;14312;52.614;13.496;2023-04-06T10:54:40;1.30;;;1.20;;
26696;SDS011;14312;52.614;13.496;2023-04-06T10:57:28;1.38;;;1.27;;
26696;SDS011;14312;52.614;13.496;2023-04-06T11:00:16;1.30;;;1.20;;
26696;SDS011;14312;52.614;13.496;2023-04-06T11:03:03;1.42;;;1.30;;
26696;SDS011;14312;52.614;13.496;2023-04-06T11:05:49;2.42;;;1.88;;
26696;SDS011;14312;52.614;13.496;2023-04-06T11:08:37;2.10;;;1.40;;
26696;SDS011;14312;52.614;13.496;2023-04-06T11:11:25;2.22;;;1.73;;
26696;SDS011;14312;52.614;13.496;2023-04-06T11:14:12;2.35;;;1.65;;
26696;SDS011;14312;52.614;13.496;2023-04-06T11:16:58;1.73;;;1.63;;
26696;SDS011;14312;52.614;13.496;2023-04-06T11:19:44;1.65;;;1.55;;
26696;SDS011;14312;52.614;13.496;2023-04-06T11:22:30;1.60;;;1.50;;
26696;SDS011;14312;52.614;13.496;2023-04-06T11:25:16;1.58;;;1.48;;
26696;SDS011;14312;52.614;13.496;2023-04-06T11:28:03;1.90;;;1.70;;
26696;SDS011;14312;52.614;13.496;2023-04-06T11:30:49;1.63;;;1.30;;
26696;SDS011;14312;52.614;13.496;2023-04-06T11:33:35;2.70;;;1.58;;
26696;SDS011;14312;52.614;13.496;2023-04-06T11:36:23;2.50;;;1.42;;
26696;SDS011;14312;52.614;13.496;2023-04-06T11:39:09;1.60;;;1.30;;
26696;SDS011;14312;52.614;13.496;2023-04-06T11:42:00;1.88;;;1.35;;
26696;SDS011;14312;52.614;13.496;2023-04-06T11:44:49;2.38;;;1.30;;
26696;SDS011;14312;52.614;13.496;2023-04-06T11:47:39;1.40;;;1.30;;
26696;SDS011;14312;52.614;13.496;2023-04-06T11:50:31;1.98;;;1.77;;
26696;SDS011;14312;52.614;13.496;2023-04-06T11:53:19;2.20;;;1.77;;
26696;SDS011;14312;52.614;13.496;2023-04-06T11:56:05;2.05;;;1.83;;
26696;SDS011;14312;52.614;13.496;2023-04-06T11:58:52;2.90;;;2.08;;
26696;SDS011;14312;52.614;13.496;2023-04-06T12:01:45;1.95;;;1.50;;
26696;SDS011;14312;52.614;13.496;2023-04-06T12:04:32;2.08;;;1.52;;
26696;SDS011;14312;52.614;13.496;2023-04-06T12:07:18;2.58;;;2.30;;
26696;SDS011;14312;52.614;13.496;2023-04-06T12:10:04;3.20;;;1.88;;
26696;SDS011;14312;52.614;13.496;2023-04-06T12:12:50;2.00;;;1.60;;
26696;SDS011;14312;52.614;13.496;2023-04-06T12:15:36;1.60;;;1.50;;
26696;SDS011;14312;52.614;13.496;2023-04-06T12:18:23;2.00;;;1.45;;
26696;SDS011;14312;52.614;13.496;2023-04-06T12:21:09;2.00;;;1.80;;
26696;SDS011;14312;52.614;13.496;2023-04-06T12:23:55;2.03;;;1.70;;
26696;SDS011;14312;52.614;13.496;2023-04-06T12:26:41;1.73;;;1.40;;
26696;SDS011;14312;52.614;13.496;2023-04-06T12:29:28;1.60;;;1.33;;
26696;SDS011;14312;52.614;13.496;2023-04-06T12:32:14;1.75;;;1.65;;
26696;SDS011;14312;52.614;13.496;2023-04-06T12:35:00;1.60;;;1.50;;
26696;SDS011;14312;52.614;13.496;2023-04-06T12:37:46;1.48;;;1.38;;
26696;SDS011;14312;52.614;13.496;2023-04-06T12:40:36;1.70;;;1.40;;
26696;SDS011;14312;52.614;13.496;2023-04-06T12:43:23;1.95;;;1.60;;
26696;SDS011;14312;52.614;13.496;2023-04-06T12:46:09;2.15;;;1.95;;
26696;SDS011;14312;52.614;13.496;2023-04-06T12:48:56;1.60;;;1.50;;
26696;SDS011;14312;52.614;13.496;2023-04-06T12:51:43;2.67;;;1.58;;
26696;SDS011;14312;52.614;13.496;2023-04-06T12:54:29;2.00;;;1.83;;
26696;SDS011;14312;52.614;13.496;2023-04-06T12:57:15;1.92;;;1.60;;
26696;SDS011;14312;52.614;13.496;2023-04-06T13:00:01;1.63;;;1.52;;
26696;SDS011;14312;52.614;13.496;2023-04-06T13:02:48;1.63;;;1.45;;
26696;SDS011;14312;52.614;13.496;2023-04-06T13:05:34;1.75;;;1.50;;
26696;SDS011;14312;52.614;13.496;2023-04-06T13:08:20;3.13;;;1.40;;
26696;SDS011;14312;52.614;13.496;2023-04-06T13:11:07;1.50;;;1.40;;
26696;SDS011;14312;52.614;13.496;2023-04-06T13:13:55;1.45;;;1.30;;
26696;SDS011;14312;52.614;13.496;2023-04-06T13:16:41;1.33;;;1.23;;
26696;SDS011;14312;52.614;13.496;2023-04-06T13:19:28;1.48;;;1.38;;
26696;SDS011;14312;52.614;13.496;2023-04-06T13:22:14;1.50;;;1.40;;
26696;SDS011;14312;52.614;13.496;2023-04-06T13:25:01;1.65;;;1.50;;
26696;SDS011;14312;52.614;13.496;2023-04-06T13:27:47;1.40;;;1.30;;
26696;SDS011;14312;52.614;13.496;2023-04-06T13:30:34;1.88;;;1.58;;
26696;SDS011;14312;52.614;13.496;2023-04-06T13:33:20;2.35;;;1.60;;
26696;SDS011;14312;52.614;13.496;2023-04-06T13:36:06;1.52;;;1.42;;
26696;SDS011;14312;52.614;13.496;2023-04-06T13:38:53;2.13;;;1.63;;
26696;SDS011;14312;52.614;13.496;2023-04-06T13:41:40;1.92;;;1.52;;
26696;SDS011;14312;52.614;13.496;2023-04-06T13:44:27;1.98;;;1.77;;
26696;SDS011;14312;52.614;13.496;2023-04-06T13:47:13;1.40;;;1.30;;
26696;SDS011;14312;52.614;13.496;2023-04-06T13:50:00;1.60;;;1.45;;
26696;SDS011;14312;52.614;13.496;2023-04-06T13:52:46;1.65;;;1.55;;
26696;SDS011;14312;52.614;13.496;2023-04-06T13:55:33;2.17;;;1.40;;
26696;SDS011;14312;52.614;13.496;2023-04-06T13:58:18;1.48;;;1.38;;
26696;SDS011;14312;52.614;13.496;2023-04-06T14:01:07;2.05;;;1.30;;
26696;SDS011;14312;52.614;13.496;2023-04-06T14:03:55;1.38;;;1.20;;
26696;SDS011;14312;52.614;13.496;2023-04-06T14:06:40;1.40;;;1.30;;
26696;SDS011;14312;52.614;13.496;2023-04-06T14:09:27;1.67;;;1.30;;
26696;SDS011;14312;52.614;13.496;2023-04-06T14:12:13;2.25;;;1.50;;
26696;SDS011;14312;52.614;13.496;2023-04-06T14:14:59;1.17;;;1.08;;
26696;SDS011;14312;52.614;13.496;2023-04-06T14:17:45;1.60;;;1.20;;
26696;SDS011;14312;52.614;13.496;2023-04-06T14:20:31;1.20;;;1.10;;
26696;SDS011;14312;52.614;13.496;2023-04-06T14:23:18;1.85;;;1.30;;
26696;SDS011;14312;52.614;13.496;2023-04-06T14:26:05;1.73;;;1.15;;
26696;SDS011;14312;52.614;13.496;2023-04-06T14:28:52;1.40;;;1.30;;
26696;SDS011;14312;52.614;13.496;2023-04-06T14:31:38;1.42;;;1.33;;
26696;SDS011;14312;52.614;13.496;2023-04-06T14:34:25;1.20;;;1.10;;
26696;SDS011;14312;52.614;13.496;2023-04-06T14:37:14;1.17;;;1.10;;
26696;SDS011;14312;52.614;13.496;2023-04-06T14:40:00;2.35;;;1.45;;
26696;SDS011;14312;52.614;13.496;2023-04-06T14:42:46;1.58;;;1.30;;
26696;SDS011;14312;52.614;13.496;2023-04-06T14:45:33;1.15;;;1.13;;
26696;SDS011;14312;52.614;13.496;2023-04-06T14:48:20;1.20;;;1.10;;
26696;SDS011;14312;52.614;13.496;2023-04-06T14:51:06;1.30;;;1.20;;
26696;SDS011;14312;52.614;13.496;2023-04-06T14:53:53;1.60;;;1.13;;
26696;SDS011;14312;52.614;13.496;2023-04-06T14:56:39;1.23;;;1.13;;
26696;SDS011;14312;52.614;13.496;2023-04-06T14:59:25;1.45;;;1.25;;
26696;SDS011;14312;52.614;13.496;2023-04-06T15:02:11;1.88;;;1.50;;
26696;SDS011;14312;52.614;13.496;2023-04-06T15:04:57;2.13;;;1.55;;
26696;SDS011;14312;52.614;13.496;2023-04-06T15:07:43;1.92;;;1.50;;
26696;SDS011;14312;52.614;13.496;2023-04-06T15:10:31;1.52;;;1.42;;
26696;SDS011;14312;52.614;13.496;2023-04-06T15:13:18;2.38;;;1.60;;
26696;SDS011;14312;52.614;13.496;2023-04-06T15:16:04;1.60;;;1.42;;
26696;SDS011;14312;52.614;13.496;2023-04-06T15:18:51;1.55;;;1.30;;
26696;SDS011;14312;52.614;13.496;2023-04-06T15:21:37;1.30;;;1.20;;
26696;SDS011;14312;52.614;13.496;2023-04-06T15:24:23;1.40;;;1.30;;
26696;SDS011;14312;52.614;13.496;2023-04-06T15:27:09;1.17;;;1.10;;
26696;SDS011;14312;52.614;13.496;2023-04-06T15:29:55;1.67;;;1.27;;
26696;SDS011;14312;52.614;13.496;2023-04-06T15:32:46;1.20;;;1.10;;
26696;SDS011;14312;52.614;13.496;2023-04-06T15:35:38;1.38;;;1.17;;
26696;SDS011;14312;52.614;13.496;2023-04-06T15:38:27;1.58;;;1.27;;
26696;SDS011;14312;52.614;13.496;2023-04-06T15:41:14;1.80;;;1.50;;
26696;SDS011;14312;52.614;13.496;2023-04-06T15:44:01;1.42;;;1.33;;
26696;SDS011;14312;52.614;13.496;2023-04-06T15:46:48;1.67;;;1.50;;
26696;SDS011;14312;52.614;13.496;2023-04-06T15:49:34;1.52;;;1.42;;
26696;SDS011;14312;52.614;13.496;2023-04-06T15:52:20;1.40;;;1.30;;
26696;SDS011;14312;52.614;13.496;2023-04-06T15:55:07;1.92;;;1.60;;
26696;SDS011;14312;52.614;13.496;2023-04-06T15:57:54;1.73;;;1.27;;
26696;SDS011;14312;52.614;13.496;2023-04-06T16:00:40;1.90;;;1.30;;
26696;SDS011;14312;52.614;13.496;2023-04-06T16:03:28;1.52;;;1.30;;
26696;SDS011;14312;52.614;13.496;2023-04-06T16:06:14;1.75;;;1.38;;
26696;SDS011;14312;52.614;13.496;2023-04-06T16:09:01;1.60;;;1.40;;
26696;SDS011;14312;52.614;13.496;2023-04-06T16:11:46;1.40;;;1.30;;
26696;SDS011;14312;52.614;13.496;2023-04-06T16:14:32;1.52;;;1.30;;
26696;SDS011;14312;52.614;13.496;2023-04-06T16:17:18;1.30;;;1.10;;
26696;SDS011;14312;52.614;13.496;2023-04-06T16:20:04;1.02;;;0.93;;
26696;SDS011;14312;52.614;13.496;2023-04-06T16:22:50;1.80;;;1.50;;
26696;SDS011;14312;52.614;13.496;2023-04-06T16:25:36;1.30;;;1.20;;
26696;SDS011;14312;52.614;13.496;2023-04-06T16:28:22;1.45;;;1.30;;
26696;SDS011;14312;52.614;13.496;2023-04-06T16:31:16;1.52;;;1.42;;
26696;SDS011;14312;52.614;13.496;2023-04-06T16:34:04;1.35;;;1.23;;
26696;SDS011;14312;52.614;13.496;2023-04-06T16:36:50;2.42;;;1.60;;
26696;SDS011;14312;52.614;13.496;2023-04-06T16:39:36;1.35;;;1.25;;
26696;SDS011;14312;52.614;13.496;2023-04-06T16:42:22;2.38;;;1.40;;